Aviation Digital Data Service (ADDS)

Output produced by METARs form (1725 UTC 16 June 2019)
found at http://www.aviationweather.gov/metar/data/
 
TAF SKBQ 161630Z 1618/1718 02010KT 9999 SCT015 
     PROB40 
     TEMPO 1620/1623 4000 RA FEW015CB 
     TEMPO 1701/1708 CAVOK 
     PROB40 1710/1713 5000 BR SCT010 TX33/1618Z TN26/1710Z
       
TAF SKBO 161630Z 1618/1718 12012KT 9999 BKN020 SCT070 
     TEMPO 1619/1622 DZ 
     BECMG 1700/1702 VRB02KT 
     PROB30 
     TEMPO 1710/1713 DZRA BKN017 SCT080 TX20/1618Z TN09/1711Z
       
TAF SKBG 161630Z 1618/1718 32006KT 9999 SCT015 SCT070 
     TEMPO 1622/1702 DZRA SCT015 BKN070 TX27/1618Z TN18/1711Z
       
TAF SKCL 161630Z 1618/1718 32007KT 9999 SCT020 BKN120 
     PROB30 
     TEMPO 1622/1702 8000 VCSH SCT017TCU 
     BECMG 1702/1703 VRB02KT FEW017 SCT090 
     TEMPO 1711/1714 7000 VCFG TX31/1619Z TN19/1711Z
       
TAF SKCG 161630Z 1618/1718 32010KT 9999 FEW020 
     TEMPO 1622/1701 5000 TSRA SCT015CB 
     BECMG 1702/1704 VRB02KT CAVOK 
     BECMG 1712/1714 34010KT 9999 FEW020 TX33/1619Z TN25/1711Z
       
TAF SKCC 161630Z 1618/1718 16020KT 9999 SCT020 SCT090 
     BECMG 1701/1703 VRB02KT FEW020 
     BECMG 1714/1716 18016KT TX35/1619Z TN24/1711Z
       
TAF SKLT 161630Z 1618/1718 VRB03KT 9999 SCT015 BKN080 
     TEMPO 1619/1620 DZRA SCT010CB BKN050 TX32/1618Z TN22/1711Z
       
TAF SKRG 161630Z 1618/1718 10010KT 9999 FEW020 SCT080 
     TEMPO 1619/1623 5000 RADZ SCT015TCU BKN070 
     BECMG 1700/1702 VRB02KT 
     TEMPO 1705/1713 5000 BCFG DZ BKN005 TX23/1618Z TN13/1711Z
       
TAF SKPE 161630Z 1618/1718 31006KT 9999 SCT017 SCT080 
     TEMPO 1620/1622 7000 VCSH SCT017TCU 
     BECMG 1700/1702 VRB02KT FEW017 BKN080 
     TEMPO 1710/1713 6000 VCFG TX27/1618Z TN17/1711Z
       
TAF SKSP 161630Z 1618/1718 07014KT 9999 FEW018 TX33/1619Z TN27/1711Z